Mechta S — D6A003 — position and weather

sailwx.info

Track history (hours):
 
Tides and Currents Weather Stations Pressure Air Temp Water Temp Dewpoint Dewpoint Depression Visibility Wind Speed Wind Dir Waves Ship Positions

Mechta S

Last reported at 2018-Jul-14 10:37 UTC. Time now 2018-Jul-16 06:30 UTC.
Position N 43°38' E 030°19'.

Length 119 m; draft 3.2 m.

Type: Cargo ship. MMSI: 620000003.

Date/timePositionNaut miles runAvg speedWind from/ knotsBaromVisibWave heightAir tempDewpointWater temp
2018-Jul-14 10:37N 43°38' E 030°19'1 6.5
2018-Jul-14 10:31N 43°37' E 030°18'3 6.6
2018-Jul-14 10:00N 43°36' E 030°14'4 3.6
2018-Jul-14 09:00N 43°36' E 030°09'2 4.6
2018-Jul-14 08:30N 43°36' E 030°06'4 6.3
2018-Jul-14 07:50N 43°34' E 030°00'2 6.3
2018-Jul-14 07:31N 43°34' E 029°58'3 6.3
2018-Jul-14 07:01N 43°33' E 029°54'3 6.3
2018-Jul-14 06:29N 43°32' E 029°49'3 6.3
2018-Jul-14 06:00N 43°31' E 029°45'15 6.4
2018-Jul-14 03:36N 43°27' E 029°25'1 6.5
2018-Jul-14 03:30N 43°27' E 029°24'4 6.6
2018-Jul-14 02:53N 43°26' E 029°18'3 6.7
2018-Jul-14 02:30N 43°25' E 029°15'3 6.7
2018-Jul-14 02:01N 43°25' E 029°11'3 6.7
2018-Jul-14 01:30N 43°24' E 029°06'3 6.7
2018-Jul-14 01:00N 43°23' E 029°02'6 6.7
2018-Jul-14 00:05N 43°21' E 028°53'1 6.7
2018-Jul-14 00:00N 43°21' E 028°53'3 6.9
2018-Jul-13 23:30N 43°20' E 028°48'4 7.1
2018-Jul-13 23:00N 43°20' E 028°43'4 7.1
2018-Jul-13 22:31N 43°19' E 028°38'4 7.1
2018-Jul-13 21:57N 43°19' E 028°33'5 7.4
2018-Jul-13 21:17N 43°18' E 028°26'2 7.7
2018-Jul-13 21:00N 43°17' E 028°24'20 0.5
2018-Jul-12 05:00N 43°11' E 027°57'3 4.6
2018-Jul-12 04:24N 43°10' E 028°01'4 6.1
2018-Jul-12 03:47N 43°06' E 028°01'2 6.2
2018-Jul-12 03:31N 43°05' E 028°00'3 6.3
2018-Jul-12 03:00N 43°01' E 028°00'3 6.2
2018-Jul-12 02:31N 42°58' E 028°00'3 6.0
2018-Jul-12 02:00N 42°55' E 027°60'3 6.2
2018-Jul-12 01:30N 42°52' E 027°59'3 6.3
2018-Jul-12 01:00N 42°49' E 027°59'3 6.4
2018-Jul-12 00:31N 42°46' E 027°59'  
2018-Jul-06 21:01N 42°27' E 027°27'0 0.0
2018-Jul-06 20:49N 42°28' E 027°27'  
Track history (hours):
 
Tides and Currents Weather Stations Pressure Air Temp Water Temp Dewpoint Dewpoint Depression Visibility Wind Speed Wind Dir Waves Ship Positions

Mechta S

Last reported at 2018-Jul-14 10:37 UTC. Time now 2018-Jul-16 06:30 UTC.
Position N 43°38' E 030°19'.

Length 119 m; draft 3.2 m.

Type: Cargo ship. MMSI: 620000003.

Date/timePositionNaut miles runAvg speedWind from/ knotsBaromVisibWave heightAir tempDewpointWater temp
2018-Jul-14 10:37N 43°38' E 030°19'1 6.5
2018-Jul-14 10:31N 43°37' E 030°18'3 6.6
2018-Jul-14 10:00N 43°36' E 030°14'4 3.6
2018-Jul-14 09:00N 43°36' E 030°09'2 4.6
2018-Jul-14 08:30N 43°36' E 030°06'4 6.3
2018-Jul-14 07:50N 43°34' E 030°00'2 6.3
2018-Jul-14 07:31N 43°34' E 029°58'3 6.3
2018-Jul-14 07:01N 43°33' E 029°54'3 6.3
2018-Jul-14 06:29N 43°32' E 029°49'3 6.3
2018-Jul-14 06:00N 43°31' E 029°45'15 6.4
2018-Jul-14 03:36N 43°27' E 029°25'1 6.5
2018-Jul-14 03:30N 43°27' E 029°24'4 6.6
2018-Jul-14 02:53N 43°26' E 029°18'3 6.7
2018-Jul-14 02:30N 43°25' E 029°15'3 6.7
2018-Jul-14 02:01N 43°25' E 029°11'3 6.7
2018-Jul-14 01:30N 43°24' E 029°06'3 6.7
2018-Jul-14 01:00N 43°23' E 029°02'6 6.7
2018-Jul-14 00:05N 43°21' E 028°53'1 6.7
2018-Jul-14 00:00N 43°21' E 028°53'3 6.9
2018-Jul-13 23:30N 43°20' E 028°48'4 7.1
2018-Jul-13 23:00N 43°20' E 028°43'4 7.1
2018-Jul-13 22:31N 43°19' E 028°38'4 7.1
2018-Jul-13 21:57N 43°19' E 028°33'5 7.4
2018-Jul-13 21:17N 43°18' E 028°26'2 7.7
2018-Jul-13 21:00N 43°17' E 028°24'20 0.5
2018-Jul-12 05:00N 43°11' E 027°57'3 4.6
2018-Jul-12 04:24N 43°10' E 028°01'4 6.1
2018-Jul-12 03:47N 43°06' E 028°01'2 6.2
2018-Jul-12 03:31N 43°05' E 028°00'3 6.3
2018-Jul-12 03:00N 43°01' E 028°00'3 6.2
2018-Jul-12 02:31N 42°58' E 028°00'3 6.0
2018-Jul-12 02:00N 42°55' E 027°60'3 6.2
2018-Jul-12 01:30N 42°52' E 027°59'3 6.3
2018-Jul-12 01:00N 42°49' E 027°59'3 6.4
2018-Jul-12 00:31N 42°46' E 027°59'  
2018-Jul-06 21:01N 42°27' E 027°27'0 0.0
2018-Jul-06 20:49N 42°28' E 027°27'  

Dump ship's entire track history